sensor_id;sensor_type;location;lat;lon;timestamp;temperature;humidity
21259;DHT22;10787;53.364;-1.480;2022-11-15T00:00:53;10.60;99.90
21259;DHT22;10787;53.364;-1.480;2022-11-15T00:03:22;10.50;99.90
21259;DHT22;10787;53.364;-1.480;2022-11-15T00:05:49;10.40;99.90
21259;DHT22;10787;53.364;-1.480;2022-11-15T00:08:15;10.30;99.90
21259;DHT22;10787;53.364;-1.480;2022-11-15T00:10:41;10.30;99.90
21259;DHT22;10787;53.364;-1.480;2022-11-15T00:13:09;10.20;99.90
21259;DHT22;10787;53.364;-1.480;2022-11-15T00:15:36;10.20;99.90
21259;DHT22;10787;53.364;-1.480;2022-11-15T00:18:03;10.10;99.90
21259;DHT22;10787;53.364;-1.480;2022-11-15T00:20:29;10.10;99.90
21259;DHT22;10787;53.364;-1.480;2022-11-15T00:22:56;10.00;99.90
21259;DHT22;10787;53.364;-1.480;2022-11-15T00:25:22;9.90;99.90
21259;DHT22;10787;53.364;-1.480;2022-11-15T00:27:48;9.80;99.90
21259;DHT22;10787;53.364;-1.480;2022-11-15T00:30:14;9.70;99.90
21259;DHT22;10787;53.364;-1.480;2022-11-15T00:32:40;9.60;99.90
21259;DHT22;10787;53.364;-1.480;2022-11-15T00:35:06;9.60;99.90
21259;DHT22;10787;53.364;-1.480;2022-11-15T00:37:32;9.50;99.90
21259;DHT22;10787;53.364;-1.480;2022-11-15T00:39:57;9.50;99.90
21259;DHT22;10787;53.364;-1.480;2022-11-15T00:42:33;9.40;99.90
21259;DHT22;10787;53.364;-1.480;2022-11-15T00:44:58;9.40;99.90
21259;DHT22;10787;53.364;-1.480;2022-11-15T00:47:24;9.30;99.90
21259;DHT22;10787;53.364;-1.480;2022-11-15T00:49:50;9.30;99.90
21259;DHT22;10787;53.364;-1.480;2022-11-15T00:52:16;9.20;99.90
21259;DHT22;10787;53.364;-1.480;2022-11-15T00:54:42;9.20;99.90
21259;DHT22;10787;53.364;-1.480;2022-11-15T00:57:08;9.20;99.90
21259;DHT22;10787;53.364;-1.480;2022-11-15T00:59:34;9.20;99.90
21259;DHT22;10787;53.364;-1.480;2022-11-15T01:02:00;9.10;99.90
21259;DHT22;10787;53.364;-1.480;2022-11-15T01:04:26;9.10;99.90
21259;DHT22;10787;53.364;-1.480;2022-11-15T01:06:52;9.00;99.90
21259;DHT22;10787;53.364;-1.480;2022-11-15T01:09:18;9.00;99.90
21259;DHT22;10787;53.364;-1.480;2022-11-15T01:11:44;9.00;99.90
21259;DHT22;10787;53.364;-1.480;2022-11-15T01:14:10;8.90;99.90
21259;DHT22;10787;53.364;-1.480;2022-11-15T01:16:36;8.90;99.90
21259;DHT22;10787;53.364;-1.480;2022-11-15T01:19:02;8.90;99.90
21259;DHT22;10787;53.364;-1.480;2022-11-15T01:21:28;8.80;99.90
21259;DHT22;10787;53.364;-1.480;2022-11-15T01:23:56;8.80;99.90
21259;DHT22;10787;53.364;-1.480;2022-11-15T01:26:22;8.70;99.90
21259;DHT22;10787;53.364;-1.480;2022-11-15T01:28:49;8.70;99.90
21259;DHT22;10787;53.364;-1.480;2022-11-15T01:31:18;8.60;99.90
21259;DHT22;10787;53.364;-1.480;2022-11-15T01:33:45;8.60;99.90
21259;DHT22;10787;53.364;-1.480;2022-11-15T01:36:21;8.60;99.90
21259;DHT22;10787;53.364;-1.480;2022-11-15T01:38:59;8.50;99.90
21259;DHT22;10787;53.364;-1.480;2022-11-15T01:41:32;8.50;99.90
21259;DHT22;10787;53.364;-1.480;2022-11-15T01:46:58;8.50;99.90
21259;DHT22;10787;53.364;-1.480;2022-11-15T01:49:26;8.40;99.90
21259;DHT22;10787;53.364;-1.480;2022-11-15T01:51:54;8.40;99.90
21259;DHT22;10787;53.364;-1.480;2022-11-15T01:54:22;8.40;99.90
21259;DHT22;10787;53.364;-1.480;2022-11-15T01:56:53;8.30;99.90
21259;DHT22;10787;53.364;-1.480;2022-11-15T01:59:20;8.30;99.90
21259;DHT22;10787;53.364;-1.480;2022-11-15T02:01:46;8.30;99.90
21259;DHT22;10787;53.364;-1.480;2022-11-15T02:04:26;8.30;99.90
21259;DHT22;10787;53.364;-1.480;2022-11-15T02:06:52;8.30;99.90
21259;DHT22;10787;53.364;-1.480;2022-11-15T02:09:18;8.30;99.90
21259;DHT22;10787;53.364;-1.480;2022-11-15T02:11:45;8.30;99.90
21259;DHT22;10787;53.364;-1.480;2022-11-15T02:14:13;8.30;99.90
21259;DHT22;10787;53.364;-1.480;2022-11-15T02:17:11;8.40;99.90
21259;DHT22;10787;53.364;-1.480;2022-11-15T02:25:39;8.40;99.90
21259;DHT22;10787;53.364;-1.480;2022-11-15T02:34:03;8.50;99.90
21259;DHT22;10787;53.364;-1.480;2022-11-15T02:42:14;8.50;99.90
21259;DHT22;10787;53.364;-1.480;2022-11-15T02:45:03;8.50;99.90
21259;DHT22;10787;53.364;-1.480;2022-11-15T02:47:34;8.50;99.90
21259;DHT22;10787;53.364;-1.480;2022-11-15T02:50:06;8.60;99.90
21259;DHT22;10787;53.364;-1.480;2022-11-15T02:52:33;8.60;99.90
21259;DHT22;10787;53.364;-1.480;2022-11-15T02:55:00;8.60;99.90
21259;DHT22;10787;53.364;-1.480;2022-11-15T03:00:09;8.60;99.90
21259;DHT22;10787;53.364;-1.480;2022-11-15T03:08:10;8.60;99.90
21259;DHT22;10787;53.364;-1.480;2022-11-15T03:11:03;8.60;99.90
21259;DHT22;10787;53.364;-1.480;2022-11-15T03:21:47;8.50;99.90
21259;DHT22;10787;53.364;-1.480;2022-11-15T03:24:14;8.40;99.90
21259;DHT22;10787;53.364;-1.480;2022-11-15T03:26:44;8.40;99.90
21259;DHT22;10787;53.364;-1.480;2022-11-15T03:29:14;8.40;99.90
21259;DHT22;10787;53.364;-1.480;2022-11-15T03:31:45;8.50;99.90
21259;DHT22;10787;53.364;-1.480;2022-11-15T03:36:44;8.50;99.90
21259;DHT22;10787;53.364;-1.480;2022-11-15T03:39:13;8.60;99.90
21259;DHT22;10787;53.364;-1.480;2022-11-15T03:41:48;8.60;99.90
21259;DHT22;10787;53.364;-1.480;2022-11-15T03:47:34;8.70;99.90
21259;DHT22;10787;53.364;-1.480;2022-11-15T03:50:01;8.70;99.90
21259;DHT22;10787;53.364;-1.480;2022-11-15T03:52:32;8.70;99.90
21259;DHT22;10787;53.364;-1.480;2022-11-15T03:55:01;8.80;99.90
21259;DHT22;10787;53.364;-1.480;2022-11-15T03:57:28;8.80;99.90
21259;DHT22;10787;53.364;-1.480;2022-11-15T03:59:54;8.80;99.90
21259;DHT22;10787;53.364;-1.480;2022-11-15T04:02:20;8.80;99.90
21259;DHT22;10787;53.364;-1.480;2022-11-15T04:04:46;8.90;99.90
21259;DHT22;10787;53.364;-1.480;2022-11-15T04:07:11;8.90;99.90
21259;DHT22;10787;53.364;-1.480;2022-11-15T04:09:37;8.90;99.90
21259;DHT22;10787;53.364;-1.480;2022-11-15T04:12:24;8.90;99.90
21259;DHT22;10787;53.364;-1.480;2022-11-15T04:15:04;9.00;99.90
21259;DHT22;10787;53.364;-1.480;2022-11-15T04:22:53;9.00;99.90
21259;DHT22;10787;53.364;-1.480;2022-11-15T04:25:38;9.00;99.90
21259;DHT22;10787;53.364;-1.480;2022-11-15T04:28:04;9.00;99.90
21259;DHT22;10787;53.364;-1.480;2022-11-15T04:30:30;9.00;99.90
21259;DHT22;10787;53.364;-1.480;2022-11-15T04:32:56;9.00;99.90
21259;DHT22;10787;53.364;-1.480;2022-11-15T04:35:22;9.00;99.90
21259;DHT22;10787;53.364;-1.480;2022-11-15T04:37:48;9.00;99.90
21259;DHT22;10787;53.364;-1.480;2022-11-15T04:40:13;9.00;99.90
21259;DHT22;10787;53.364;-1.480;2022-11-15T04:42:42;9.00;99.90
21259;DHT22;10787;53.364;-1.480;2022-11-15T04:45:09;9.10;99.90
21259;DHT22;10787;53.364;-1.480;2022-11-15T04:47:35;9.10;99.90
21259;DHT22;10787;53.364;-1.480;2022-11-15T04:50:00;9.10;99.90
21259;DHT22;10787;53.364;-1.480;2022-11-15T04:52:26;9.20;99.90
21259;DHT22;10787;53.364;-1.480;2022-11-15T04:54:52;9.20;99.90
21259;DHT22;10787;53.364;-1.480;2022-11-15T04:57:19;9.20;99.90
21259;DHT22;10787;53.364;-1.480;2022-11-15T04:59:44;9.30;99.90
21259;DHT22;10787;53.364;-1.480;2022-11-15T05:02:10;9.30;99.90
21259;DHT22;10787;53.364;-1.480;2022-11-15T05:04:36;9.30;99.90
21259;DHT22;10787;53.364;-1.480;2022-11-15T05:07:02;9.30;99.90
21259;DHT22;10787;53.364;-1.480;2022-11-15T05:09:31;9.30;99.90
21259;DHT22;10787;53.364;-1.480;2022-11-15T05:11:57;9.30;99.90
21259;DHT22;10787;53.364;-1.480;2022-11-15T05:14:23;9.30;99.90
21259;DHT22;10787;53.364;-1.480;2022-11-15T05:16:48;9.30;99.90
21259;DHT22;10787;53.364;-1.480;2022-11-15T05:19:14;9.30;99.90
21259;DHT22;10787;53.364;-1.480;2022-11-15T05:21:40;9.30;99.90
21259;DHT22;10787;53.364;-1.480;2022-11-15T05:24:06;9.30;99.90
21259;DHT22;10787;53.364;-1.480;2022-11-15T05:26:34;9.30;99.90
21259;DHT22;10787;53.364;-1.480;2022-11-15T05:29:00;9.30;99.90
21259;DHT22;10787;53.364;-1.480;2022-11-15T05:31:26;9.30;99.90
21259;DHT22;10787;53.364;-1.480;2022-11-15T05:33:53;9.30;99.90
21259;DHT22;10787;53.364;-1.480;2022-11-15T05:38:55;9.20;99.90
21259;DHT22;10787;53.364;-1.480;2022-11-15T05:41:32;9.20;99.90
21259;DHT22;10787;53.364;-1.480;2022-11-15T05:44:00;9.30;99.90
21259;DHT22;10787;53.364;-1.480;2022-11-15T05:46:27;9.20;99.90
21259;DHT22;10787;53.364;-1.480;2022-11-15T05:48:54;9.20;99.90
21259;DHT22;10787;53.364;-1.480;2022-11-15T05:51:22;9.30;99.90
21259;DHT22;10787;53.364;-1.480;2022-11-15T05:53:49;9.30;99.90
21259;DHT22;10787;53.364;-1.480;2022-11-15T05:56:16;9.30;99.90
21259;DHT22;10787;53.364;-1.480;2022-11-15T05:58:42;9.30;99.90
21259;DHT22;10787;53.364;-1.480;2022-11-15T06:01:09;9.40;99.90
21259;DHT22;10787;53.364;-1.480;2022-11-15T06:03:35;9.40;99.90
21259;DHT22;10787;53.364;-1.480;2022-11-15T06:06:02;9.40;99.90
21259;DHT22;10787;53.364;-1.480;2022-11-15T06:08:28;9.40;99.90
21259;DHT22;10787;53.364;-1.480;2022-11-15T06:10:53;9.40;99.90
21259;DHT22;10787;53.364;-1.480;2022-11-15T06:13:21;9.40;99.90
21259;DHT22;10787;53.364;-1.480;2022-11-15T06:15:46;9.40;99.90
21259;DHT22;10787;53.364;-1.480;2022-11-15T06:18:12;9.40;99.90
21259;DHT22;10787;53.364;-1.480;2022-11-15T06:20:38;9.50;99.90
21259;DHT22;10787;53.364;-1.480;2022-11-15T06:23:04;9.50;99.90
21259;DHT22;10787;53.364;-1.480;2022-11-15T06:25:31;9.50;99.90
21259;DHT22;10787;53.364;-1.480;2022-11-15T06:28:16;9.50;99.90
21259;DHT22;10787;53.364;-1.480;2022-11-15T06:30:42;9.50;99.90
21259;DHT22;10787;53.364;-1.480;2022-11-15T06:33:08;9.40;99.90
21259;DHT22;10787;53.364;-1.480;2022-11-15T06:35:35;9.50;99.90
21259;DHT22;10787;53.364;-1.480;2022-11-15T06:38:10;9.50;99.90
21259;DHT22;10787;53.364;-1.480;2022-11-15T06:40:38;9.50;99.90
21259;DHT22;10787;53.364;-1.480;2022-11-15T06:43:05;9.50;99.90
21259;DHT22;10787;53.364;-1.480;2022-11-15T06:45:31;9.50;99.90
21259;DHT22;10787;53.364;-1.480;2022-11-15T06:47:58;9.50;99.90
21259;DHT22;10787;53.364;-1.480;2022-11-15T06:50:24;9.50;99.90
21259;DHT22;10787;53.364;-1.480;2022-11-15T06:52:50;9.50;99.90
21259;DHT22;10787;53.364;-1.480;2022-11-15T06:55:16;9.50;99.90
21259;DHT22;10787;53.364;-1.480;2022-11-15T06:57:51;9.50;99.90
21259;DHT22;10787;53.364;-1.480;2022-11-15T07:00:19;9.40;99.90
21259;DHT22;10787;53.364;-1.480;2022-11-15T07:02:45;9.40;99.90
21259;DHT22;10787;53.364;-1.480;2022-11-15T07:05:12;9.40;99.90
21259;DHT22;10787;53.364;-1.480;2022-11-15T07:07:38;9.40;99.90
21259;DHT22;10787;53.364;-1.480;2022-11-15T07:10:05;9.40;99.90
21259;DHT22;10787;53.364;-1.480;2022-11-15T07:12:31;9.40;99.90
21259;DHT22;10787;53.364;-1.480;2022-11-15T07:15:30;9.40;99.90
21259;DHT22;10787;53.364;-1.480;2022-11-15T07:17:59;9.40;99.90
21259;DHT22;10787;53.364;-1.480;2022-11-15T07:20:25;9.40;99.90
21259;DHT22;10787;53.364;-1.480;2022-11-15T07:22:59;9.50;99.90
21259;DHT22;10787;53.364;-1.480;2022-11-15T07:25:26;9.70;99.90
21259;DHT22;10787;53.364;-1.480;2022-11-15T07:27:59;9.90;99.90
21259;DHT22;10787;53.364;-1.480;2022-11-15T07:30:26;10.00;99.90
21259;DHT22;10787;53.364;-1.480;2022-11-15T07:33:00;10.00;99.90
21259;DHT22;10787;53.364;-1.480;2022-11-15T07:35:27;10.00;99.90
21259;DHT22;10787;53.364;-1.480;2022-11-15T07:37:57;9.90;99.90
21259;DHT22;10787;53.364;-1.480;2022-11-15T07:40:24;9.90;99.90
21259;DHT22;10787;53.364;-1.480;2022-11-15T07:42:50;9.90;99.90
21259;DHT22;10787;53.364;-1.480;2022-11-15T07:45:19;9.90;99.90
21259;DHT22;10787;53.364;-1.480;2022-11-15T07:47:46;9.90;99.90
21259;DHT22;10787;53.364;-1.480;2022-11-15T07:50:13;9.90;99.90
21259;DHT22;10787;53.364;-1.480;2022-11-15T07:52:39;9.90;99.90
21259;DHT22;10787;53.364;-1.480;2022-11-15T07:55:05;9.90;99.90
21259;DHT22;10787;53.364;-1.480;2022-11-15T07:57:31;9.90;99.90
21259;DHT22;10787;53.364;-1.480;2022-11-15T07:59:57;9.90;99.90
21259;DHT22;10787;53.364;-1.480;2022-11-15T08:02:23;9.90;99.90
21259;DHT22;10787;53.364;-1.480;2022-11-15T08:04:49;9.90;99.90
21259;DHT22;10787;53.364;-1.480;2022-11-15T08:07:14;9.90;99.90
21259;DHT22;10787;53.364;-1.480;2022-11-15T08:09:40;9.90;99.90
21259;DHT22;10787;53.364;-1.480;2022-11-15T08:12:06;9.90;99.90
21259;DHT22;10787;53.364;-1.480;2022-11-15T08:14:32;9.90;99.90
21259;DHT22;10787;53.364;-1.480;2022-11-15T08:16:58;9.90;99.90
21259;DHT22;10787;53.364;-1.480;2022-11-15T08:19:24;9.90;99.90
21259;DHT22;10787;53.364;-1.480;2022-11-15T08:21:50;9.90;99.90
21259;DHT22;10787;53.364;-1.480;2022-11-15T08:24:16;9.90;99.90
21259;DHT22;10787;53.364;-1.480;2022-11-15T08:26:42;9.90;99.90
21259;DHT22;10787;53.364;-1.480;2022-11-15T08:29:07;10.00;99.90
21259;DHT22;10787;53.364;-1.480;2022-11-15T08:31:35;10.00;99.90
21259;DHT22;10787;53.364;-1.480;2022-11-15T08:34:02;10.00;99.90
21259;DHT22;10787;53.364;-1.480;2022-11-15T08:36:28;10.00;99.90
21259;DHT22;10787;53.364;-1.480;2022-11-15T08:38:54;10.00;99.90
21259;DHT22;10787;53.364;-1.480;2022-11-15T08:41:30;10.00;99.90
21259;DHT22;10787;53.364;-1.480;2022-11-15T08:43:56;10.10;99.90
21259;DHT22;10787;53.364;-1.480;2022-11-15T08:46:22;10.10;99.90
21259;DHT22;10787;53.364;-1.480;2022-11-15T08:48:48;10.10;99.90
21259;DHT22;10787;53.364;-1.480;2022-11-15T08:51:15;10.10;99.90
21259;DHT22;10787;53.364;-1.480;2022-11-15T08:53:41;10.10;99.90
21259;DHT22;10787;53.364;-1.480;2022-11-15T08:56:08;10.20;99.90
21259;DHT22;10787;53.364;-1.480;2022-11-15T08:58:35;10.20;99.90
21259;DHT22;10787;53.364;-1.480;2022-11-15T09:01:01;10.20;99.90
21259;DHT22;10787;53.364;-1.480;2022-11-15T09:03:27;10.20;99.90
21259;DHT22;10787;53.364;-1.480;2022-11-15T09:05:57;10.20;99.90
21259;DHT22;10787;53.364;-1.480;2022-11-15T09:08:25;10.30;99.90
21259;DHT22;10787;53.364;-1.480;2022-11-15T09:10:51;10.30;99.90
21259;DHT22;10787;53.364;-1.480;2022-11-15T09:13:17;10.30;99.90
21259;DHT22;10787;53.364;-1.480;2022-11-15T09:15:43;10.30;99.90
21259;DHT22;10787;53.364;-1.480;2022-11-15T09:18:09;10.40;99.90
21259;DHT22;10787;53.364;-1.480;2022-11-15T09:20:34;10.40;99.90
21259;DHT22;10787;53.364;-1.480;2022-11-15T09:23:01;10.40;99.90
21259;DHT22;10787;53.364;-1.480;2022-11-15T09:25:27;10.40;99.90
21259;DHT22;10787;53.364;-1.480;2022-11-15T09:27:54;10.40;99.90
21259;DHT22;10787;53.364;-1.480;2022-11-15T09:30:20;10.50;99.90
21259;DHT22;10787;53.364;-1.480;2022-11-15T09:32:46;10.50;99.90
21259;DHT22;10787;53.364;-1.480;2022-11-15T09:35:11;10.50;99.90
21259;DHT22;10787;53.364;-1.480;2022-11-15T09:37:37;10.50;99.90
21259;DHT22;10787;53.364;-1.480;2022-11-15T09:40:03;10.50;99.90
21259;DHT22;10787;53.364;-1.480;2022-11-15T09:42:47;10.50;99.90
21259;DHT22;10787;53.364;-1.480;2022-11-15T09:50:42;10.50;99.90
21259;DHT22;10787;53.364;-1.480;2022-11-15T09:53:18;10.50;99.90
21259;DHT22;10787;53.364;-1.480;2022-11-15T09:56:03;10.50;99.90
21259;DHT22;10787;53.364;-1.480;2022-11-15T09:58:44;10.50;99.90
21259;DHT22;10787;53.364;-1.480;2022-11-15T10:01:22;10.60;99.90
21259;DHT22;10787;53.364;-1.480;2022-11-15T10:03:50;10.50;99.90
21259;DHT22;10787;53.364;-1.480;2022-11-15T10:06:23;10.60;99.90
21259;DHT22;10787;53.364;-1.480;2022-11-15T10:09:25;10.60;99.90
21259;DHT22;10787;53.364;-1.480;2022-11-15T10:11:54;10.60;99.90
21259;DHT22;10787;53.364;-1.480;2022-11-15T10:14:22;10.60;99.90
21259;DHT22;10787;53.364;-1.480;2022-11-15T10:22:35;10.70;99.90
21259;DHT22;10787;53.364;-1.480;2022-11-15T10:27:35;10.80;99.90
21259;DHT22;10787;53.364;-1.480;2022-11-15T10:30:01;10.80;99.90
21259;DHT22;10787;53.364;-1.480;2022-11-15T10:32:30;10.80;99.90
21259;DHT22;10787;53.364;-1.480;2022-11-15T10:34:58;10.80;99.90
21259;DHT22;10787;53.364;-1.480;2022-11-15T10:37:28;10.90;99.90
21259;DHT22;10787;53.364;-1.480;2022-11-15T10:40:22;10.90;99.90
21259;DHT22;10787;53.364;-1.480;2022-11-15T10:43:05;10.90;99.90
21259;DHT22;10787;53.364;-1.480;2022-11-15T10:45:32;10.90;99.90
21259;DHT22;10787;53.364;-1.480;2022-11-15T10:50:42;10.90;99.90
21259;DHT22;10787;53.364;-1.480;2022-11-15T10:53:31;11.00;99.90
21259;DHT22;10787;53.364;-1.480;2022-11-15T10:56:06;11.00;99.90
21259;DHT22;10787;53.364;-1.480;2022-11-15T10:58:39;11.00;99.90
21259;DHT22;10787;53.364;-1.480;2022-11-15T11:01:16;11.00;99.90
21259;DHT22;10787;53.364;-1.480;2022-11-15T11:03:45;11.00;99.90
21259;DHT22;10787;53.364;-1.480;2022-11-15T11:06:14;11.00;99.90
21259;DHT22;10787;53.364;-1.480;2022-11-15T11:08:52;11.00;99.90
21259;DHT22;10787;53.364;-1.480;2022-11-15T11:11:18;11.00;99.90
21259;DHT22;10787;53.364;-1.480;2022-11-15T11:13:44;11.00;99.90
21259;DHT22;10787;53.364;-1.480;2022-11-15T11:16:41;11.10;99.90
21259;DHT22;10787;53.364;-1.480;2022-11-15T11:24:47;11.10;99.90
21259;DHT22;10787;53.364;-1.480;2022-11-15T11:30:10;11.20;99.90
21259;DHT22;10787;53.364;-1.480;2022-11-15T11:32:42;11.20;99.90
21259;DHT22;10787;53.364;-1.480;2022-11-15T11:43:52;11.20;99.90
21259;DHT22;10787;53.364;-1.480;2022-11-15T11:54:58;11.30;99.90
21259;DHT22;10787;53.364;-1.480;2022-11-15T12:00:20;11.30;99.90
21259;DHT22;10787;53.364;-1.480;2022-11-15T12:03:11;11.30;99.90
21259;DHT22;10787;53.364;-1.480;2022-11-15T12:05:48;11.40;99.90
21259;DHT22;10787;53.364;-1.480;2022-11-15T12:13:39;11.40;99.90
21259;DHT22;10787;53.364;-1.480;2022-11-15T12:18:43;11.40;99.90
21259;DHT22;10787;53.364;-1.480;2022-11-15T12:21:19;11.40;99.90
21259;DHT22;10787;53.364;-1.480;2022-11-15T12:23:50;11.40;99.90
21259;DHT22;10787;53.364;-1.480;2022-11-15T12:26:25;11.40;99.90
21259;DHT22;10787;53.364;-1.480;2022-11-15T12:28:56;11.40;99.90
21259;DHT22;10787;53.364;-1.480;2022-11-15T12:31:43;11.40;99.90
21259;DHT22;10787;53.364;-1.480;2022-11-15T12:34:40;11.50;99.90
21259;DHT22;10787;53.364;-1.480;2022-11-15T12:37:32;11.50;99.90
21259;DHT22;10787;53.364;-1.480;2022-11-15T12:45:33;11.50;99.90
21259;DHT22;10787;53.364;-1.480;2022-11-15T12:58:57;11.60;99.90
21259;DHT22;10787;53.364;-1.480;2022-11-15T13:06:42;11.60;99.90
21259;DHT22;10787;53.364;-1.480;2022-11-15T13:11:53;11.60;99.90
21259;DHT22;10787;53.364;-1.480;2022-11-15T13:14:50;11.60;99.90
21259;DHT22;10787;53.364;-1.480;2022-11-15T13:17:27;11.60;99.90
21259;DHT22;10787;53.364;-1.480;2022-11-15T13:20:17;11.70;99.90
21259;DHT22;10787;53.364;-1.480;2022-11-15T13:30:35;11.70;99.90
21259;DHT22;10787;53.364;-1.480;2022-11-15T13:33:13;11.70;99.90
21259;DHT22;10787;53.364;-1.480;2022-11-15T13:35:41;11.70;99.90
21259;DHT22;10787;53.364;-1.480;2022-11-15T13:38:26;11.80;99.90
21259;DHT22;10787;53.364;-1.480;2022-11-15T13:40:53;11.80;99.90
21259;DHT22;10787;53.364;-1.480;2022-11-15T13:46:07;11.70;99.90
21259;DHT22;10787;53.364;-1.480;2022-11-15T13:48:35;11.70;99.90
21259;DHT22;10787;53.364;-1.480;2022-11-15T13:54:01;11.80;99.90
21259;DHT22;10787;53.364;-1.480;2022-11-15T13:56:27;11.80;99.90
21259;DHT22;10787;53.364;-1.480;2022-11-15T13:58:54;11.80;99.90
21259;DHT22;10787;53.364;-1.480;2022-11-15T14:01:21;11.90;99.90
21259;DHT22;10787;53.364;-1.480;2022-11-15T14:03:57;11.90;99.90
21259;DHT22;10787;53.364;-1.480;2022-11-15T14:06:25;12.00;99.90
21259;DHT22;10787;53.364;-1.480;2022-11-15T14:11:28;12.10;99.90
21259;DHT22;10787;53.364;-1.480;2022-11-15T14:16:40;12.10;99.90
21259;DHT22;10787;53.364;-1.480;2022-11-15T14:24:46;12.10;99.90
21259;DHT22;10787;53.364;-1.480;2022-11-15T14:27:27;12.20;99.90
21259;DHT22;10787;53.364;-1.480;2022-11-15T14:29:54;12.20;99.90
21259;DHT22;10787;53.364;-1.480;2022-11-15T14:32:22;12.20;99.90
21259;DHT22;10787;53.364;-1.480;2022-11-15T14:34:53;12.30;99.90
21259;DHT22;10787;53.364;-1.480;2022-11-15T14:37:29;12.30;99.90
21259;DHT22;10787;53.364;-1.480;2022-11-15T14:39:56;12.20;99.90
21259;DHT22;10787;53.364;-1.480;2022-11-15T14:42:23;12.20;99.90
21259;DHT22;10787;53.364;-1.480;2022-11-15T14:44:49;12.20;99.90
21259;DHT22;10787;53.364;-1.480;2022-11-15T14:47:15;12.10;99.90
21259;DHT22;10787;53.364;-1.480;2022-11-15T14:49:42;12.10;99.90
21259;DHT22;10787;53.364;-1.480;2022-11-15T14:52:26;12.10;99.90
21259;DHT22;10787;53.364;-1.480;2022-11-15T14:57:36;12.00;99.90
21259;DHT22;10787;53.364;-1.480;2022-11-15T15:00:05;12.00;99.90
21259;DHT22;10787;53.364;-1.480;2022-11-15T15:02:32;12.00;99.90
21259;DHT22;10787;53.364;-1.480;2022-11-15T15:04:58;11.90;99.90
21259;DHT22;10787;53.364;-1.480;2022-11-15T15:07:27;11.90;99.90
21259;DHT22;10787;53.364;-1.480;2022-11-15T15:09:53;11.80;99.90
21259;DHT22;10787;53.364;-1.480;2022-11-15T15:12:21;11.70;99.90
21259;DHT22;10787;53.364;-1.480;2022-11-15T15:14:49;11.70;99.90
21259;DHT22;10787;53.364;-1.480;2022-11-15T15:17:15;11.70;99.90
21259;DHT22;10787;53.364;-1.480;2022-11-15T15:19:42;11.70;99.90
21259;DHT22;10787;53.364;-1.480;2022-11-15T15:22:13;11.60;99.90
21259;DHT22;10787;53.364;-1.480;2022-11-15T15:24:42;11.50;99.90
21259;DHT22;10787;53.364;-1.480;2022-11-15T15:27:09;11.30;99.90
21259;DHT22;10787;53.364;-1.480;2022-11-15T15:29:36;11.10;99.90
21259;DHT22;10787;53.364;-1.480;2022-11-15T15:32:02;11.00;99.90
21259;DHT22;10787;53.364;-1.480;2022-11-15T15:34:27;10.90;99.90
21259;DHT22;10787;53.364;-1.480;2022-11-15T15:37:22;10.80;99.90
21259;DHT22;10787;53.364;-1.480;2022-11-15T15:39:53;10.70;99.90
21259;DHT22;10787;53.364;-1.480;2022-11-15T15:42:19;10.70;99.90
21259;DHT22;10787;53.364;-1.480;2022-11-15T15:44:46;10.70;99.90
21259;DHT22;10787;53.364;-1.480;2022-11-15T15:47:15;10.70;99.90
21259;DHT22;10787;53.364;-1.480;2022-11-15T15:49:41;10.60;99.90
21259;DHT22;10787;53.364;-1.480;2022-11-15T15:52:08;10.60;99.90
21259;DHT22;10787;53.364;-1.480;2022-11-15T15:54:34;10.60;99.90
21259;DHT22;10787;53.364;-1.480;2022-11-15T15:56:59;10.50;99.90
21259;DHT22;10787;53.364;-1.480;2022-11-15T15:59:25;10.50;99.90
21259;DHT22;10787;53.364;-1.480;2022-11-15T16:01:51;10.30;99.90
21259;DHT22;10787;53.364;-1.480;2022-11-15T16:04:17;10.20;99.90
21259;DHT22;10787;53.364;-1.480;2022-11-15T16:06:43;10.10;99.90
21259;DHT22;10787;53.364;-1.480;2022-11-15T16:09:14;10.00;99.90
21259;DHT22;10787;53.364;-1.480;2022-11-15T16:11:46;9.90;99.90
21259;DHT22;10787;53.364;-1.480;2022-11-15T16:14:13;9.80;99.90
21259;DHT22;10787;53.364;-1.480;2022-11-15T16:16:39;9.70;99.90
21259;DHT22;10787;53.364;-1.480;2022-11-15T16:19:05;9.60;99.90
21259;DHT22;10787;53.364;-1.480;2022-11-15T16:21:31;9.50;99.90
21259;DHT22;10787;53.364;-1.480;2022-11-15T16:23:57;9.40;99.90
21259;DHT22;10787;53.364;-1.480;2022-11-15T16:26:29;9.30;99.90
21259;DHT22;10787;53.364;-1.480;2022-11-15T16:28:55;9.20;99.90
21259;DHT22;10787;53.364;-1.480;2022-11-15T16:31:21;9.20;99.90
21259;DHT22;10787;53.364;-1.480;2022-11-15T16:33:48;9.10;99.90
21259;DHT22;10787;53.364;-1.480;2022-11-15T16:36:24;9.00;99.90
21259;DHT22;10787;53.364;-1.480;2022-11-15T16:38:51;9.00;99.90
21259;DHT22;10787;53.364;-1.480;2022-11-15T16:41:17;8.90;99.90
21259;DHT22;10787;53.364;-1.480;2022-11-15T16:43:48;8.90;99.90
21259;DHT22;10787;53.364;-1.480;2022-11-15T16:46:25;8.80;99.90
21259;DHT22;10787;53.364;-1.480;2022-11-15T16:48:52;8.70;99.90
21259;DHT22;10787;53.364;-1.480;2022-11-15T16:51:33;8.60;99.90
21259;DHT22;10787;53.364;-1.480;2022-11-15T16:53:59;8.60;99.90
21259;DHT22;10787;53.364;-1.480;2022-11-15T16:56:27;8.50;99.90
21259;DHT22;10787;53.364;-1.480;2022-11-15T16:58:54;8.50;99.90
21259;DHT22;10787;53.364;-1.480;2022-11-15T17:01:33;8.50;99.90
21259;DHT22;10787;53.364;-1.480;2022-11-15T17:04:12;8.40;99.90
21259;DHT22;10787;53.364;-1.480;2022-11-15T17:06:39;8.40;99.90
21259;DHT22;10787;53.364;-1.480;2022-11-15T17:09:09;8.30;99.90
21259;DHT22;10787;53.364;-1.480;2022-11-15T17:11:36;8.30;99.90
21259;DHT22;10787;53.364;-1.480;2022-11-15T17:14:02;8.30;99.90
21259;DHT22;10787;53.364;-1.480;2022-11-15T17:16:28;8.30;99.90
21259;DHT22;10787;53.364;-1.480;2022-11-15T17:18:54;8.20;99.90
21259;DHT22;10787;53.364;-1.480;2022-11-15T17:21:21;8.20;99.90
21259;DHT22;10787;53.364;-1.480;2022-11-15T17:23:47;8.20;99.90
21259;DHT22;10787;53.364;-1.480;2022-11-15T17:26:14;8.20;99.90
21259;DHT22;10787;53.364;-1.480;2022-11-15T17:28:40;8.10;99.90
21259;DHT22;10787;53.364;-1.480;2022-11-15T17:31:18;8.10;99.90
21259;DHT22;10787;53.364;-1.480;2022-11-15T17:33:44;8.10;99.90
21259;DHT22;10787;53.364;-1.480;2022-11-15T17:36:11;8.00;99.90
21259;DHT22;10787;53.364;-1.480;2022-11-15T17:38:37;7.90;99.90
21259;DHT22;10787;53.364;-1.480;2022-11-15T17:41:15;7.90;99.90
21259;DHT22;10787;53.364;-1.480;2022-11-15T17:43:41;7.90;99.90
21259;DHT22;10787;53.364;-1.480;2022-11-15T17:46:12;7.80;99.90
21259;DHT22;10787;53.364;-1.480;2022-11-15T17:48:38;7.80;99.90
21259;DHT22;10787;53.364;-1.480;2022-11-15T17:51:06;7.80;99.90
21259;DHT22;10787;53.364;-1.480;2022-11-15T17:53:34;7.80;99.90
21259;DHT22;10787;53.364;-1.480;2022-11-15T17:56:03;7.70;99.90
21259;DHT22;10787;53.364;-1.480;2022-11-15T17:58:30;7.70;99.90
21259;DHT22;10787;53.364;-1.480;2022-11-15T18:03:33;7.60;99.90
21259;DHT22;10787;53.364;-1.480;2022-11-15T18:05:58;7.60;99.90
21259;DHT22;10787;53.364;-1.480;2022-11-15T18:08:25;7.60;99.90
21259;DHT22;10787;53.364;-1.480;2022-11-15T18:11:13;7.60;99.90
21259;DHT22;10787;53.364;-1.480;2022-11-15T18:13:41;7.60;99.90
21259;DHT22;10787;53.364;-1.480;2022-11-15T18:16:21;7.60;99.90